sensor_id;sensor_type;location;lat;lon;timestamp;P1;durP1;ratioP1;P2;durP2;ratioP2
15889;SDS011;8043;49.388;12.128;2022-10-16T00:03:52;3.03;;;1.80;;
15889;SDS011;8043;49.388;12.128;2022-10-16T00:08:54;2.20;;;1.80;;
15889;SDS011;8043;49.388;12.128;2022-10-16T00:13:58;1.87;;;1.43;;
15889;SDS011;8043;49.388;12.128;2022-10-16T00:19:02;2.80;;;1.70;;
15889;SDS011;8043;49.388;12.128;2022-10-16T00:24:06;2.07;;;1.50;;
15889;SDS011;8043;49.388;12.128;2022-10-16T00:29:09;5.67;;;1.80;;
15889;SDS011;8043;49.388;12.128;2022-10-16T00:34:11;6.00;;;1.97;;
15889;SDS011;8043;49.388;12.128;2022-10-16T00:39:13;2.00;;;1.80;;
15889;SDS011;8043;49.388;12.128;2022-10-16T00:55:25;2.03;;;1.77;;
15889;SDS011;8043;49.388;12.128;2022-10-16T01:00:30;3.27;;;1.47;;
15889;SDS011;8043;49.388;12.128;2022-10-16T01:05:33;3.03;;;1.80;;
15889;SDS011;8043;49.388;12.128;2022-10-16T01:10:38;1.93;;;1.30;;
15889;SDS011;8043;49.388;12.128;2022-10-16T01:15:47;2.23;;;1.63;;
15889;SDS011;8043;49.388;12.128;2022-10-16T01:31:11;2.17;;;1.43;;
15889;SDS011;8043;49.388;12.128;2022-10-16T01:36:18;2.33;;;1.47;;
15889;SDS011;8043;49.388;12.128;2022-10-16T01:41:27;2.60;;;1.93;;
15889;SDS011;8043;49.388;12.128;2022-10-16T01:46:30;6.73;;;1.80;;
15889;SDS011;8043;49.388;12.128;2022-10-16T01:51:34;3.80;;;1.90;;
15889;SDS011;8043;49.388;12.128;2022-10-16T01:56:37;4.87;;;1.83;;
15889;SDS011;8043;49.388;12.128;2022-10-16T02:01:42;1.80;;;1.60;;
15889;SDS011;8043;49.388;12.128;2022-10-16T02:06:45;2.27;;;1.57;;
15889;SDS011;8043;49.388;12.128;2022-10-16T02:11:48;2.40;;;1.70;;
15889;SDS011;8043;49.388;12.128;2022-10-16T02:16:50;3.27;;;2.37;;
15889;SDS011;8043;49.388;12.128;2022-10-16T02:21:57;9.43;;;4.33;;
15889;SDS011;8043;49.388;12.128;2022-10-16T02:32:23;4.30;;;1.80;;
15889;SDS011;8043;49.388;12.128;2022-10-16T02:37:26;5.70;;;2.10;;
15889;SDS011;8043;49.388;12.128;2022-10-16T02:42:33;2.33;;;1.70;;
15889;SDS011;8043;49.388;12.128;2022-10-16T02:47:37;4.33;;;1.80;;
15889;SDS011;8043;49.388;12.128;2022-10-16T02:52:39;4.90;;;2.00;;
15889;SDS011;8043;49.388;12.128;2022-10-16T02:57:41;2.63;;;1.93;;
15889;SDS011;8043;49.388;12.128;2022-10-16T03:02:44;8.10;;;2.00;;
15889;SDS011;8043;49.388;12.128;2022-10-16T03:07:47;3.50;;;1.63;;
15889;SDS011;8043;49.388;12.128;2022-10-16T03:12:49;2.17;;;1.60;;
15889;SDS011;8043;49.388;12.128;2022-10-16T03:17:51;2.73;;;1.90;;
15889;SDS011;8043;49.388;12.128;2022-10-16T03:22:53;6.47;;;1.67;;
15889;SDS011;8043;49.388;12.128;2022-10-16T03:27:55;3.97;;;1.90;;
15889;SDS011;8043;49.388;12.128;2022-10-16T03:32:58;3.07;;;1.80;;
15889;SDS011;8043;49.388;12.128;2022-10-16T03:38:00;3.13;;;1.67;;
15889;SDS011;8043;49.388;12.128;2022-10-16T03:43:02;4.93;;;1.63;;
15889;SDS011;8043;49.388;12.128;2022-10-16T03:48:04;3.23;;;1.80;;
15889;SDS011;8043;49.388;12.128;2022-10-16T03:53:06;2.73;;;1.60;;
15889;SDS011;8043;49.388;12.128;2022-10-16T03:58:09;4.40;;;1.60;;
15889;SDS011;8043;49.388;12.128;2022-10-16T04:03:11;3.00;;;1.80;;
15889;SDS011;8043;49.388;12.128;2022-10-16T04:08:13;10.53;;;1.53;;
15889;SDS011;8043;49.388;12.128;2022-10-16T04:13:16;2.93;;;1.60;;
15889;SDS011;8043;49.388;12.128;2022-10-16T04:18:18;2.73;;;1.93;;
15889;SDS011;8043;49.388;12.128;2022-10-16T04:23:25;4.77;;;1.70;;
15889;SDS011;8043;49.388;12.128;2022-10-16T04:28:24;2.80;;;1.63;;
15889;SDS011;8043;49.388;12.128;2022-10-16T04:33:27;8.87;;;4.67;;
15889;SDS011;8043;49.388;12.128;2022-10-16T04:38:29;7.93;;;3.40;;
15889;SDS011;8043;49.388;12.128;2022-10-16T04:43:32;3.27;;;2.37;;
15889;SDS011;8043;49.388;12.128;2022-10-16T04:48:34;2.87;;;2.07;;
15889;SDS011;8043;49.388;12.128;2022-10-16T04:53:36;3.10;;;2.00;;
15889;SDS011;8043;49.388;12.128;2022-10-16T04:58:39;4.57;;;1.87;;
15889;SDS011;8043;49.388;12.128;2022-10-16T05:03:41;2.47;;;1.77;;
15889;SDS011;8043;49.388;12.128;2022-10-16T05:08:43;3.57;;;2.10;;
15889;SDS011;8043;49.388;12.128;2022-10-16T05:13:46;3.50;;;2.27;;
15889;SDS011;8043;49.388;12.128;2022-10-16T05:18:48;9.97;;;2.00;;
15889;SDS011;8043;49.388;12.128;2022-10-16T05:23:50;3.87;;;2.33;;
15889;SDS011;8043;49.388;12.128;2022-10-16T05:28:54;3.23;;;2.00;;
15889;SDS011;8043;49.388;12.128;2022-10-16T05:33:59;2.73;;;1.60;;
15889;SDS011;8043;49.388;12.128;2022-10-16T05:39:02;3.13;;;1.97;;
15889;SDS011;8043;49.388;12.128;2022-10-16T05:44:04;3.47;;;1.90;;
15889;SDS011;8043;49.388;12.128;2022-10-16T05:49:07;4.93;;;2.80;;
15889;SDS011;8043;49.388;12.128;2022-10-16T05:54:09;3.73;;;2.43;;
15889;SDS011;8043;49.388;12.128;2022-10-16T05:59:11;3.20;;;2.40;;
15889;SDS011;8043;49.388;12.128;2022-10-16T06:04:13;3.17;;;1.93;;
15889;SDS011;8043;49.388;12.128;2022-10-16T06:09:15;4.57;;;2.00;;
15889;SDS011;8043;49.388;12.128;2022-10-16T06:14:18;2.10;;;1.90;;
15889;SDS011;8043;49.388;12.128;2022-10-16T06:19:20;2.93;;;2.03;;
15889;SDS011;8043;49.388;12.128;2022-10-16T06:24:23;2.47;;;2.00;;
15889;SDS011;8043;49.388;12.128;2022-10-16T06:29:25;4.37;;;2.13;;
15889;SDS011;8043;49.388;12.128;2022-10-16T06:34:28;5.00;;;2.80;;
15889;SDS011;8043;49.388;12.128;2022-10-16T06:39:30;9.53;;;3.93;;
15889;SDS011;8043;49.388;12.128;2022-10-16T06:44:32;2.20;;;1.87;;
15889;SDS011;8043;49.388;12.128;2022-10-16T06:49:34;5.83;;;2.13;;
15889;SDS011;8043;49.388;12.128;2022-10-16T06:54:37;2.43;;;1.97;;
15889;SDS011;8043;49.388;12.128;2022-10-16T06:59:39;6.10;;;2.23;;
15889;SDS011;8043;49.388;12.128;2022-10-16T07:04:41;4.23;;;1.77;;
15889;SDS011;8043;49.388;12.128;2022-10-16T07:09:44;4.37;;;2.33;;
15889;SDS011;8043;49.388;12.128;2022-10-16T07:14:46;3.63;;;2.40;;
15889;SDS011;8043;49.388;12.128;2022-10-16T07:19:49;2.97;;;2.00;;
15889;SDS011;8043;49.388;12.128;2022-10-16T07:24:53;2.10;;;1.60;;
15889;SDS011;8043;49.388;12.128;2022-10-16T07:29:56;2.50;;;1.77;;
15889;SDS011;8043;49.388;12.128;2022-10-16T07:34:58;2.17;;;1.67;;
15889;SDS011;8043;49.388;12.128;2022-10-16T07:40:00;2.30;;;1.73;;
15889;SDS011;8043;49.388;12.128;2022-10-16T07:45:02;2.63;;;1.93;;
15889;SDS011;8043;49.388;12.128;2022-10-16T07:50:05;2.67;;;2.10;;
15889;SDS011;8043;49.388;12.128;2022-10-16T07:55:08;3.83;;;2.50;;
15889;SDS011;8043;49.388;12.128;2022-10-16T08:00:12;4.73;;;2.27;;
15889;SDS011;8043;49.388;12.128;2022-10-16T08:05:15;2.27;;;1.90;;
15889;SDS011;8043;49.388;12.128;2022-10-16T08:10:19;2.47;;;2.00;;
15889;SDS011;8043;49.388;12.128;2022-10-16T08:15:22;1.63;;;1.37;;
15889;SDS011;8043;49.388;12.128;2022-10-16T08:20:25;4.00;;;2.00;;
15889;SDS011;8043;49.388;12.128;2022-10-16T08:25:28;5.13;;;1.80;;
15889;SDS011;8043;49.388;12.128;2022-10-16T08:30:30;4.97;;;2.80;;
15889;SDS011;8043;49.388;12.128;2022-10-16T08:35:33;7.17;;;2.80;;
15889;SDS011;8043;49.388;12.128;2022-10-16T08:40:36;5.10;;;2.40;;
15889;SDS011;8043;49.388;12.128;2022-10-16T08:50:50;7.00;;;3.03;;
15889;SDS011;8043;49.388;12.128;2022-10-16T08:55:53;4.00;;;2.60;;
15889;SDS011;8043;49.388;12.128;2022-10-16T09:01:00;2.90;;;2.03;;
15889;SDS011;8043;49.388;12.128;2022-10-16T09:11:24;3.67;;;1.77;;
15889;SDS011;8043;49.388;12.128;2022-10-16T09:16:44;2.27;;;1.73;;
15889;SDS011;8043;49.388;12.128;2022-10-16T09:21:48;8.63;;;4.73;;
15889;SDS011;8043;49.388;12.128;2022-10-16T09:26:51;7.10;;;1.87;;
15889;SDS011;8043;49.388;12.128;2022-10-16T09:31:54;3.37;;;2.40;;
15889;SDS011;8043;49.388;12.128;2022-10-16T09:36:59;3.10;;;2.00;;
15889;SDS011;8043;49.388;12.128;2022-10-16T09:42:03;1.80;;;1.67;;
15889;SDS011;8043;49.388;12.128;2022-10-16T09:47:28;2.17;;;1.67;;
15889;SDS011;8043;49.388;12.128;2022-10-16T09:52:14;3.20;;;1.53;;
15889;SDS011;8043;49.388;12.128;2022-10-16T09:57:17;4.03;;;2.07;;
15889;SDS011;8043;49.388;12.128;2022-10-16T10:02:23;5.53;;;2.50;;
15889;SDS011;8043;49.388;12.128;2022-10-16T10:07:34;3.67;;;2.00;;
15889;SDS011;8043;49.388;12.128;2022-10-16T10:12:38;2.60;;;2.00;;
15889;SDS011;8043;49.388;12.128;2022-10-16T10:17:50;3.53;;;1.77;;
15889;SDS011;8043;49.388;12.128;2022-10-16T10:22:54;3.53;;;1.90;;
15889;SDS011;8043;49.388;12.128;2022-10-16T10:28:15;4.93;;;2.50;;
15889;SDS011;8043;49.388;12.128;2022-10-16T10:43:59;2.87;;;1.63;;
15889;SDS011;8043;49.388;12.128;2022-10-16T10:59:49;2.87;;;1.90;;
15889;SDS011;8043;49.388;12.128;2022-10-16T11:05:08;4.27;;;1.90;;
15889;SDS011;8043;49.388;12.128;2022-10-16T11:10:30;2.33;;;1.50;;
15889;SDS011;8043;49.388;12.128;2022-10-16T11:15:48;2.00;;;1.20;;
15889;SDS011;8043;49.388;12.128;2022-10-16T11:20:53;5.03;;;1.33;;
15889;SDS011;8043;49.388;12.128;2022-10-16T11:25:59;2.70;;;1.80;;
15889;SDS011;8043;49.388;12.128;2022-10-16T11:31:04;1.73;;;1.50;;
15889;SDS011;8043;49.388;12.128;2022-10-16T11:36:28;2.33;;;1.63;;
15889;SDS011;8043;49.388;12.128;2022-10-16T11:52:11;2.08;;;1.87;;
15889;SDS011;8043;49.388;12.128;2022-10-16T11:57:14;4.23;;;1.87;;
15889;SDS011;8043;49.388;12.128;2022-10-16T12:02:25;1.40;;;1.13;;
15889;SDS011;8043;49.388;12.128;2022-10-16T12:07:36;2.30;;;1.37;;
15889;SDS011;8043;49.388;12.128;2022-10-16T12:12:39;2.17;;;1.73;;
15889;SDS011;8043;49.388;12.128;2022-10-16T12:17:41;2.27;;;1.50;;
15889;SDS011;8043;49.388;12.128;2022-10-16T12:22:48;1.80;;;1.50;;
15889;SDS011;8043;49.388;12.128;2022-10-16T12:27:54;3.77;;;1.40;;
15889;SDS011;8043;49.388;12.128;2022-10-16T12:33:02;1.50;;;1.40;;
15889;SDS011;8043;49.388;12.128;2022-10-16T12:38:16;2.53;;;1.70;;
15889;SDS011;8043;49.388;12.128;2022-10-16T12:48:46;3.87;;;1.53;;
15889;SDS011;8043;49.388;12.128;2022-10-16T12:54:10;2.67;;;1.70;;
15889;SDS011;8043;49.388;12.128;2022-10-16T13:25:25;3.27;;;1.90;;
15889;SDS011;8043;49.388;12.128;2022-10-16T13:30:32;2.60;;;1.67;;
15889;SDS011;8043;49.388;12.128;2022-10-16T13:35:36;3.00;;;2.02;;
15889;SDS011;8043;49.388;12.128;2022-10-16T13:40:47;2.52;;;1.80;;
15889;SDS011;8043;49.388;12.128;2022-10-16T13:56:06;5.60;;;1.80;;
15889;SDS011;8043;49.388;12.128;2022-10-16T14:01:20;2.73;;;1.90;;
15889;SDS011;8043;49.388;12.128;2022-10-16T14:06:28;2.92;;;2.05;;
15889;SDS011;8043;49.388;12.128;2022-10-16T14:11:30;6.80;;;1.65;;
15889;SDS011;8043;49.388;12.128;2022-10-16T14:16:33;2.95;;;1.60;;
15889;SDS011;8043;49.388;12.128;2022-10-16T14:21:35;2.25;;;1.40;;
15889;SDS011;8043;49.388;12.128;2022-10-16T14:26:42;3.72;;;1.60;;
15889;SDS011;8043;49.388;12.128;2022-10-16T14:31:55;2.72;;;1.50;;
15889;SDS011;8043;49.388;12.128;2022-10-16T14:37:18;2.92;;;1.30;;
15889;SDS011;8043;49.388;12.128;2022-10-16T14:42:20;2.45;;;1.70;;
15889;SDS011;8043;49.388;12.128;2022-10-16T14:47:25;1.17;;;1.07;;
15889;SDS011;8043;49.388;12.128;2022-10-16T14:52:28;1.43;;;1.07;;
15889;SDS011;8043;49.388;12.128;2022-10-16T14:57:31;1.80;;;1.00;;
15889;SDS011;8043;49.388;12.128;2022-10-16T15:02:34;1.17;;;0.90;;
15889;SDS011;8043;49.388;12.128;2022-10-16T15:07:40;5.00;;;1.10;;
15889;SDS011;8043;49.388;12.128;2022-10-16T15:12:42;2.00;;;1.17;;
15889;SDS011;8043;49.388;12.128;2022-10-16T15:17:45;0.70;;;0.70;;
15889;SDS011;8043;49.388;12.128;2022-10-16T15:22:47;1.30;;;0.90;;
15889;SDS011;8043;49.388;12.128;2022-10-16T15:27:49;1.67;;;1.10;;
15889;SDS011;8043;49.388;12.128;2022-10-16T15:32:51;2.15;;;0.90;;
15889;SDS011;8043;49.388;12.128;2022-10-16T15:37:54;3.40;;;1.03;;
15889;SDS011;8043;49.388;12.128;2022-10-16T15:42:56;1.40;;;1.07;;
15889;SDS011;8043;49.388;12.128;2022-10-16T15:47:58;2.00;;;1.03;;
15889;SDS011;8043;49.388;12.128;2022-10-16T15:53:01;1.30;;;1.20;;
15889;SDS011;8043;49.388;12.128;2022-10-16T15:58:03;2.30;;;1.00;;
15889;SDS011;8043;49.388;12.128;2022-10-16T16:03:06;2.40;;;1.17;;
15889;SDS011;8043;49.388;12.128;2022-10-16T16:08:08;2.07;;;1.00;;
15889;SDS011;8043;49.388;12.128;2022-10-16T16:13:10;3.70;;;1.17;;
15889;SDS011;8043;49.388;12.128;2022-10-16T16:18:12;4.10;;;1.17;;
15889;SDS011;8043;49.388;12.128;2022-10-16T16:23:14;3.93;;;2.03;;
15889;SDS011;8043;49.388;12.128;2022-10-16T16:28:17;4.07;;;2.73;;
15889;SDS011;8043;49.388;12.128;2022-10-16T16:33:19;4.70;;;2.60;;
15889;SDS011;8043;49.388;12.128;2022-10-16T16:38:21;5.97;;;2.73;;
15889;SDS011;8043;49.388;12.128;2022-10-16T16:43:27;10.53;;;4.10;;
15889;SDS011;8043;49.388;12.128;2022-10-16T16:48:29;7.10;;;3.90;;
15889;SDS011;8043;49.388;12.128;2022-10-16T16:53:33;7.00;;;3.80;;
15889;SDS011;8043;49.388;12.128;2022-10-16T16:58:36;7.10;;;4.50;;
15889;SDS011;8043;49.388;12.128;2022-10-16T17:03:41;9.43;;;4.80;;
15889;SDS011;8043;49.388;12.128;2022-10-16T17:08:44;9.53;;;4.80;;
15889;SDS011;8043;49.388;12.128;2022-10-16T17:13:47;7.40;;;4.30;;
15889;SDS011;8043;49.388;12.128;2022-10-16T17:18:50;8.57;;;4.13;;
15889;SDS011;8043;49.388;12.128;2022-10-16T17:23:53;9.00;;;4.00;;
15889;SDS011;8043;49.388;12.128;2022-10-16T17:28:57;9.90;;;3.93;;
15889;SDS011;8043;49.388;12.128;2022-10-16T17:34:02;8.27;;;4.73;;
15889;SDS011;8043;49.388;12.128;2022-10-16T17:39:07;8.57;;;4.60;;
15889;SDS011;8043;49.388;12.128;2022-10-16T17:44:10;5.67;;;3.10;;
15889;SDS011;8043;49.388;12.128;2022-10-16T17:49:14;5.37;;;2.80;;
15889;SDS011;8043;49.388;12.128;2022-10-16T17:54:16;5.03;;;3.20;;
15889;SDS011;8043;49.388;12.128;2022-10-16T17:59:18;7.90;;;3.27;;
15889;SDS011;8043;49.388;12.128;2022-10-16T18:04:22;11.80;;;4.70;;
15889;SDS011;8043;49.388;12.128;2022-10-16T18:09:24;9.27;;;5.57;;
15889;SDS011;8043;49.388;12.128;2022-10-16T18:14:29;11.73;;;5.80;;
15889;SDS011;8043;49.388;12.128;2022-10-16T18:19:32;12.47;;;7.07;;
15889;SDS011;8043;49.388;12.128;2022-10-16T18:24:34;13.87;;;6.00;;
15889;SDS011;8043;49.388;12.128;2022-10-16T18:29:36;8.07;;;4.93;;
15889;SDS011;8043;49.388;12.128;2022-10-16T18:34:39;9.17;;;5.10;;
15889;SDS011;8043;49.388;12.128;2022-10-16T18:39:44;9.97;;;4.30;;
15889;SDS011;8043;49.388;12.128;2022-10-16T18:44:48;7.77;;;2.97;;
15889;SDS011;8043;49.388;12.128;2022-10-16T18:49:50;7.17;;;3.20;;
15889;SDS011;8043;49.388;12.128;2022-10-16T18:54:54;8.13;;;3.67;;
15889;SDS011;8043;49.388;12.128;2022-10-16T18:59:58;16.63;;;4.60;;
15889;SDS011;8043;49.388;12.128;2022-10-16T19:05:01;10.33;;;4.27;;
15889;SDS011;8043;49.388;12.128;2022-10-16T19:10:04;7.57;;;3.37;;
15889;SDS011;8043;49.388;12.128;2022-10-16T19:15:10;6.63;;;3.33;;
15889;SDS011;8043;49.388;12.128;2022-10-16T19:20:12;7.67;;;4.40;;
15889;SDS011;8043;49.388;12.128;2022-10-16T19:25:15;6.43;;;3.40;;
15889;SDS011;8043;49.388;12.128;2022-10-16T19:30:19;7.20;;;3.67;;
15889;SDS011;8043;49.388;12.128;2022-10-16T19:35:22;6.50;;;3.00;;
15889;SDS011;8043;49.388;12.128;2022-10-16T19:40:26;6.20;;;3.10;;
15889;SDS011;8043;49.388;12.128;2022-10-16T19:45:28;9.33;;;4.53;;
15889;SDS011;8043;49.388;12.128;2022-10-16T19:50:31;5.43;;;2.87;;
15889;SDS011;8043;49.388;12.128;2022-10-16T19:55:33;7.93;;;3.53;;
15889;SDS011;8043;49.388;12.128;2022-10-16T20:00:35;6.23;;;3.60;;
15889;SDS011;8043;49.388;12.128;2022-10-16T20:05:49;8.70;;;3.23;;
15889;SDS011;8043;49.388;12.128;2022-10-16T20:10:53;9.07;;;3.73;;
15889;SDS011;8043;49.388;12.128;2022-10-16T20:15:56;9.07;;;3.80;;
15889;SDS011;8043;49.388;12.128;2022-10-16T20:20:58;13.07;;;6.57;;
15889;SDS011;8043;49.388;12.128;2022-10-16T20:26:01;8.87;;;4.07;;
15889;SDS011;8043;49.388;12.128;2022-10-16T20:31:10;10.10;;;5.10;;
15889;SDS011;8043;49.388;12.128;2022-10-16T20:36:18;10.37;;;5.27;;
15889;SDS011;8043;49.388;12.128;2022-10-16T20:41:22;9.83;;;3.87;;
15889;SDS011;8043;49.388;12.128;2022-10-16T20:46:25;8.20;;;3.57;;
15889;SDS011;8043;49.388;12.128;2022-10-16T20:51:29;5.67;;;3.37;;
15889;SDS011;8043;49.388;12.128;2022-10-16T20:56:34;8.00;;;3.70;;
15889;SDS011;8043;49.388;12.128;2022-10-16T21:01:37;12.40;;;3.63;;
15889;SDS011;8043;49.388;12.128;2022-10-16T21:06:40;8.40;;;3.27;;
15889;SDS011;8043;49.388;12.128;2022-10-16T21:11:44;14.97;;;4.30;;
15889;SDS011;8043;49.388;12.128;2022-10-16T21:16:46;7.70;;;4.13;;
15889;SDS011;8043;49.388;12.128;2022-10-16T21:21:50;5.07;;;2.60;;
15889;SDS011;8043;49.388;12.128;2022-10-16T21:26:53;6.83;;;2.50;;
15889;SDS011;8043;49.388;12.128;2022-10-16T21:31:55;4.53;;;2.60;;
15889;SDS011;8043;49.388;12.128;2022-10-16T21:36:58;3.73;;;2.63;;
15889;SDS011;8043;49.388;12.128;2022-10-16T21:42:01;4.80;;;2.20;;
15889;SDS011;8043;49.388;12.128;2022-10-16T21:47:03;3.23;;;2.00;;
15889;SDS011;8043;49.388;12.128;2022-10-16T21:52:05;4.27;;;2.23;;
15889;SDS011;8043;49.388;12.128;2022-10-16T21:57:07;6.23;;;2.60;;
15889;SDS011;8043;49.388;12.128;2022-10-16T22:02:09;3.00;;;2.40;;
15889;SDS011;8043;49.388;12.128;2022-10-16T22:07:12;2.47;;;2.10;;
15889;SDS011;8043;49.388;12.128;2022-10-16T22:12:15;3.47;;;2.20;;
15889;SDS011;8043;49.388;12.128;2022-10-16T22:17:19;2.77;;;2.13;;
15889;SDS011;8043;49.388;12.128;2022-10-16T22:22:21;4.30;;;2.17;;
15889;SDS011;8043;49.388;12.128;2022-10-16T22:27:24;2.57;;;1.93;;
15889;SDS011;8043;49.388;12.128;2022-10-16T22:32:27;3.97;;;2.43;;
15889;SDS011;8043;49.388;12.128;2022-10-16T22:37:29;3.73;;;2.27;;
15889;SDS011;8043;49.388;12.128;2022-10-16T22:42:31;3.13;;;2.20;;
15889;SDS011;8043;49.388;12.128;2022-10-16T22:47:34;2.43;;;1.43;;
15889;SDS011;8043;49.388;12.128;2022-10-16T22:52:36;2.97;;;1.93;;
15889;SDS011;8043;49.388;12.128;2022-10-16T22:57:38;1.60;;;1.50;;
15889;SDS011;8043;49.388;12.128;2022-10-16T23:02:41;4.17;;;1.87;;
15889;SDS011;8043;49.388;12.128;2022-10-16T23:07:43;3.07;;;2.40;;
15889;SDS011;8043;49.388;12.128;2022-10-16T23:12:46;2.17;;;1.60;;
15889;SDS011;8043;49.388;12.128;2022-10-16T23:17:48;2.13;;;1.53;;
15889;SDS011;8043;49.388;12.128;2022-10-16T23:22:50;1.80;;;1.70;;
15889;SDS011;8043;49.388;12.128;2022-10-16T23:27:52;5.90;;;1.50;;
15889;SDS011;8043;49.388;12.128;2022-10-16T23:32:55;2.57;;;1.53;;
15889;SDS011;8043;49.388;12.128;2022-10-16T23:37:57;4.17;;;1.80;;
15889;SDS011;8043;49.388;12.128;2022-10-16T23:42:59;2.53;;;1.60;;
15889;SDS011;8043;49.388;12.128;2022-10-16T23:48:01;3.87;;;1.97;;
15889;SDS011;8043;49.388;12.128;2022-10-16T23:53:03;2.50;;;1.80;;
15889;SDS011;8043;49.388;12.128;2022-10-16T23:58:06;2.23;;;1.50;;
